Time;durP1;ratioP1;P1;durP2;ratioP2;P2;SDS_P1;SDS_P2;PMS_P1;PMS_P2;Temp;Humidity;BMP_temperature;BMP_pressure;BME280_temperature;BME280_humidity;BME280_pressure;Samples;Min_cycle;Max_cycle;Signal;HPM_P1;HPM_P2
2021/12/07 00:00:09;;;;;;;135.30;54.92;;;;;;;9.81;88.15;98514.19;5139771;27;20076;-66
2021/12/07 00:02:35;;;;;;;124.32;53.00;;;;;;;9.96;85.99;98511.50;5138565;28;20035;-63
2021/12/07 00:05:00;;;;;;;120.80;51.35;;;;;;;9.93;86.81;98519.81;5136675;27;20043;-66
2021/12/07 00:07:26;;;;;;;111.22;49.47;;;;;;;10.00;84.80;98528.63;5141696;28;20241;-66
2021/12/07 00:09:51;;;;;;;115.22;47.67;;;;;;;9.81;84.64;98514.19;5139943;28;20039;-66
2021/12/07 00:12:17;;;;;;;111.13;48.55;;;;;;;9.68;85.71;98526.44;5140985;28;20039;-66
2021/12/07 00:14:44;;;;;;;104.47;47.20;;;;;;;9.53;85.53;98513.28;5142469;28;20259;-66
2021/12/07 00:17:10;;;;;;;119.45;47.53;;;;;;;9.09;87.79;98522.03;5135752;28;20099;-63
2021/12/07 00:19:36;;;;;;;118.28;48.08;;;;;;;8.97;90.33;98528.75;5118481;28;20023;-63
2021/12/07 00:22:04;;;;;;;129.43;54.28;;;;;;;9.06;90.61;98516.28;5115994;28;20107;-64
2021/12/07 00:24:29;;;;;;;139.38;56.25;;;;;;;9.19;90.83;98516.47;5135804;27;20209;-66
2021/12/07 00:26:55;;;;;;;148.98;63.05;;;;;;;9.34;90.01;98509.34;5138922;28;20035;-63
2021/12/07 00:29:20;;;;;;;151.35;62.55;;;;;;;9.44;89.86;98499.34;5138871;28;20031;-66
2021/12/07 00:31:55;;;;;;;156.50;61.58;;;;;;;9.53;89.12;98500.06;5139549;28;20045;-64
2021/12/07 00:36:49;;;;;;;127.60;54.10;;;;;;;9.48;87.90;98507.72;5138340;28;20058;-66
2021/12/07 00:39:20;;;;;;;127.78;55.47;;;;;;;9.53;88.48;98500.06;5135194;28;20075;-63
2021/12/07 00:41:48;;;;;;;108.05;49.03;;;;;;;9.58;88.12;98489.75;5136665;28;20311;-66
2021/12/07 00:44:14;;;;;;;115.97;49.20;;;;;;;9.58;87.68;98487.09;5141292;28;20034;-63
2021/12/07 00:46:40;;;;;;;117.57;52.13;;;;;;;9.69;87.04;98485.81;5135649;28;20042;-63
2021/12/07 00:49:05;;;;;;;120.53;49.72;;;;;;;9.59;87.79;98476.34;5136241;28;20015;-65
2021/12/07 00:51:31;;;;;;;121.63;50.67;;;;;;;9.62;88.24;98480.44;5135045;27;20090;-66
2021/12/07 00:53:57;;;;;;;180.82;60.53;;;;;;;9.60;88.16;98472.69;5135012;28;20028;-63
2021/12/07 00:56:23;;;;;;;114.70;49.35;;;;;;;9.64;88.01;98488.19;5139735;28;20084;-66
2021/12/07 00:58:49;;;;;;;112.53;48.35;;;;;;;9.69;87.77;98483.97;5139537;28;20034;-63
2021/12/07 01:01:16;;;;;;;111.25;47.95;;;;;;;9.64;87.15;98449.38;5135929;28;20122;-66
2021/12/07 01:03:43;;;;;;;116.00;47.67;;;;;;;9.57;87.68;98464.31;5140280;28;20030;-66
2021/12/07 01:06:23;;;;;;;111.70;46.33;;;;;;;9.64;86.94;98441.44;5141056;27;20320;-66
2021/12/07 01:09:02;;;;;;;101.93;44.55;;;;;;;9.67;86.24;98437.59;5136233;28;20039;-66
2021/12/07 01:25:16;;;;;;;;;;;;;;;9.57;87.93;98428.16;5138131;27;20396;-64
2021/12/07 01:27:44;;;;;;;103.75;43.08;;;;;;;9.56;87.92;98428.34;5139519;27;19912;-66
2021/12/07 01:30:31;;;;;;;109.65;45.17;;;;;;;9.44;88.07;98424.56;5143026;27;20059;-63
2021/12/07 01:33:26;;;;;;;100.78;44.00;;;;;;;9.53;88.15;98432.19;5135964;27;20041;-66
2021/12/07 01:59:58;;;;;;;121.72;51.13;;;;;;;9.83;87.42;98406.44;5135885;27;20066;-66
2021/12/07 02:02:27;;;;;;;119.28;51.38;;;;;;;9.65;87.89;98413.19;5137741;27;20240;-63
2021/12/07 02:04:56;;;;;;;125.95;52.90;;;;;;;9.84;87.81;98407.25;5135163;27;20077;-66
2021/12/07 02:07:23;;;;;;;131.77;56.28;;;;;;;9.69;88.53;98396.75;5136351;27;20054;-63
2021/12/07 02:09:54;;;;;;;125.68;53.67;;;;;;;9.44;89.26;98395.50;5142549;27;20073;-64
2021/12/07 02:12:20;;;;;;;127.25;52.05;;;;;;;9.64;88.76;98404.44;5143438;27;20039;-66
2021/12/07 02:14:46;;;;;;;134.35;52.47;;;;;;;9.74;88.43;98381.16;5137984;27;20043;-63
2021/12/07 02:17:15;;;;;;;128.68;52.85;;;;;;;9.78;88.20;98389.50;5136056;27;20035;-63
2021/12/07 02:19:41;;;;;;;121.10;50.53;;;;;;;9.86;87.76;98382.28;5137650;27;20030;-63
2021/12/07 02:22:09;;;;;;;111.05;47.78;;;;;;;9.87;87.86;98364.56;5136896;27;20333;-64
2021/12/07 02:24:35;;;;;;;111.72;50.67;;;;;;;9.90;87.43;98365.00;5136873;27;20038;-64
2021/12/07 02:27:00;;;;;;;116.45;51.97;;;;;;;9.93;87.14;98342.66;5137393;27;20038;-66
2021/12/07 02:29:27;;;;;;;122.07;51.60;;;;;;;10.00;86.24;98335.59;5136255;27;20038;-63
2021/12/07 02:31:54;;;;;;;136.18;55.83;;;;;;;9.84;87.61;98357.03;5139689;27;20091;-66
2021/12/07 02:34:21;;;;;;;119.03;51.33;;;;;;;9.86;87.61;98350.53;5143236;27;20262;-63
2021/12/07 02:36:46;;;;;;;118.43;51.25;;;;;;;9.90;87.24;98346.50;5139247;27;20039;-63
2021/12/07 02:39:13;;;;;;;130.32;53.13;;;;;;;9.74;87.95;98349.44;5141909;27;20260;-66
2021/12/07 02:41:39;;;;;;;119.82;52.38;;;;;;;9.64;89.18;98353.41;5143528;27;20070;-64
2021/12/07 02:44:07;;;;;;;115.20;51.05;;;;;;;9.64;89.36;98363.97;5137755;27;20333;-64
2021/12/07 02:46:34;;;;;;;116.43;49.38;;;;;;;9.55;89.44;98358.00;5135801;27;20053;-63
2021/12/07 02:48:59;;;;;;;121.47;51.70;;;;;;;9.61;90.15;98362.53;5139451;27;20035;-66
2021/12/07 02:51:25;;;;;;;124.80;55.03;;;;;;;9.69;89.06;98359.75;5138832;27;20059;-63
2021/12/07 02:53:51;;;;;;;126.85;51.65;;;;;;;9.76;89.44;98363.28;5136131;27;20035;-66
2021/12/07 02:56:17;;;;;;;125.07;50.75;;;;;;;9.88;88.41;98361.75;5137011;27;20046;-66
2021/12/07 02:58:44;;;;;;;114.90;48.25;;;;;;;9.96;87.59;98367.91;5135444;27;21440;-63
2021/12/07 03:01:17;;;;;;;120.18;51.97;;;;;;;9.74;89.31;98375.03;5137486;27;20027;-66
2021/12/07 03:04:00;;;;;;;118.30;49.90;;;;;;;9.79;89.00;98362.06;5134347;27;20031;-66
2021/12/07 03:27:51;;;;;;;109.68;45.75;;;;;;;10.07;87.06;98336.47;5135966;27;19926;-66
2021/12/07 03:30:18;;;;;;;105.00;46.95;;;;;;;9.96;87.60;98357.31;5140486;27;20033;-64
2021/12/07 03:32:43;;;;;;;109.20;49.28;;;;;;;9.94;88.16;98365.44;5142323;27;20095;-64
2021/12/07 03:35:08;;;;;;;111.68;49.15;;;;;;;10.05;87.77;98378.16;5136400;27;20031;-66
2021/12/07 03:37:34;;;;;;;120.57;51.13;;;;;;;9.71;89.43;98380.72;5134523;27;20027;-66
2021/12/07 03:39:59;;;;;;;119.35;50.33;;;;;;;9.86;89.03;98370.88;5136881;27;20043;-66
2021/12/07 03:42:25;;;;;;;113.25;48.33;;;;;;;10.08;87.18;98367.19;5136925;27;20041;-66
2021/12/07 03:44:50;;;;;;;109.88;48.13;;;;;;;9.88;86.86;98367.03;5134730;27;20197;-66
2021/12/07 03:47:16;;;;;;;109.18;45.88;;;;;;;9.60;89.18;98355.59;5136071;27;20034;-66
2021/12/07 03:49:41;;;;;;;107.03;46.50;;;;;;;9.62;90.44;98347.50;5135697;27;20053;-63
2021/12/07 03:52:07;;;;;;;100.75;43.63;;;;;;;9.75;89.03;98334.38;5136829;27;20046;-63
2021/12/07 03:54:32;;;;;;;103.63;42.65;;;;;;;9.75;87.64;98332.56;5134377;27;20064;-66
2021/12/07 03:56:58;;;;;;;104.15;44.00;;;;;;;9.54;89.35;98337.88;5135548;27;20076;-63
2021/12/07 03:59:23;;;;;;;106.68;44.45;;;;;;;9.29;91.53;98359.34;5135822;28;20058;-64
2021/12/07 04:01:51;;;;;;;110.00;45.90;;;;;;;9.21;91.32;98359.47;5134976;28;20057;-66
2021/12/07 04:04:17;;;;;;;114.07;46.75;;;;;;;9.23;93.21;98360.09;5136545;28;20023;-63
2021/12/07 04:06:42;;;;;;;112.65;45.50;;;;;;;9.45;90.67;98368.06;5134456;28;20297;-66
2021/12/07 04:09:08;;;;;;;103.43;45.35;;;;;;;9.34;91.03;98368.53;5117475;28;20023;-66
2021/12/07 04:11:33;;;;;;;109.55;44.47;;;;;;;9.47;91.43;98373.97;5135678;27;20043;-66
2021/12/07 04:13:59;;;;;;;103.57;44.53;;;;;;;9.38;91.93;98380.38;5133973;28;20034;-66
2021/12/07 04:16:24;;;;;;;95.45;42.75;;;;;;;9.48;92.32;98375.63;5135347;28;20031;-64
2021/12/07 04:18:49;;;;;;;113.22;47.03;;;;;;;9.48;91.78;98381.72;5140448;28;20031;-64
2021/12/07 04:21:15;;;;;;;104.43;46.53;;;;;;;9.54;91.98;98382.78;5141387;28;20035;-64
2021/12/07 04:23:41;;;;;;;114.22;47.13;;;;;;;9.48;91.21;98379.06;5135579;28;20031;-64
2021/12/07 04:26:09;;;;;;;106.78;48.92;;;;;;;9.59;91.22;98402.34;5134705;28;20083;-66
2021/12/07 04:28:35;;;;;;;108.40;45.00;;;;;;;9.58;90.71;98418.41;5141819;28;20051;-63
2021/12/07 04:31:01;;;;;;;103.22;42.72;;;;;;;9.18;93.23;98415.28;5139624;28;20147;-63
2021/12/07 04:33:29;;;;;;;113.60;44.70;;;;;;;9.12;94.55;98409.94;5136522;27;20374;-66
2021/12/07 04:35:55;;;;;;;107.78;43.65;;;;;;;9.25;94.18;98389.78;5115938;28;20039;-64
2021/12/07 04:38:21;;;;;;;106.85;43.58;;;;;;;9.62;92.46;98369.44;5139736;27;20042;-66
2021/12/07 04:40:46;;;;;;;107.45;43.58;;;;;;;9.40;92.66;98360.69;5141652;28;20043;-66
2021/12/07 04:43:12;;;;;;;102.22;42.97;;;;;;;9.06;94.91;98332.28;5137707;27;20083;-64
2021/12/07 04:58:35;;;;;;;117.75;46.15;;;;;;;8.55;100.00;98374.50;5140310;27;20054;-63
2021/12/07 05:01:08;;;;;;;113.88;46.50;;;;;;;8.83;100.00;98373.84;5141955;27;20027;-64
2021/12/07 05:03:34;;;;;;;117.18;46.22;;;;;;;9.10;98.51;98383.72;5138615;27;20039;-63
2021/12/07 05:05:59;;;;;;;105.68;45.30;;;;;;;9.34;98.12;98400.22;5145394;27;20137;-66
2021/12/07 05:08:38;;;;;;;133.32;54.90;;;;;;;9.34;97.28;98387.84;5141486;27;20464;-64
2021/12/07 05:13:49;;;;;;;126.85;57.67;;;;;;;9.64;96.58;98370.06;5144803;27;20031;-63
2021/12/07 05:16:34;;;;;;;119.63;50.85;;;;;;;9.42;96.95;98374.53;5142644;27;20053;-64
2021/12/07 05:24:30;;;;;;;106.55;47.00;;;;;;;9.52;96.14;98347.81;5136503;27;20397;-66
2021/12/07 05:40:13;;;;;;;102.25;46.10;;;;;;;9.81;95.81;98345.00;5144454;27;20325;-64
2021/12/07 05:42:41;;;;;;;129.65;55.72;;;;;;;9.84;95.60;98362.31;5141011;27;20023;-64
2021/12/07 05:45:09;;;;;;;142.02;66.32;;;;;;;9.94;95.60;98365.44;5137521;27;20058;-66
2021/12/07 05:47:35;;;;;;;132.77;56.47;;;;;;;10.01;95.77;98357.56;5135358;27;20035;-66
2021/12/07 05:50:02;;;;;;;143.00;55.88;;;;;;;10.09;94.62;98346.84;5137706;27;20066;-64
2021/12/07 05:52:27;;;;;;;131.63;52.25;;;;;;;10.26;93.15;98327.03;5137517;27;20325;-64
2021/12/07 05:54:53;;;;;;;118.28;52.63;;;;;;;10.22;92.45;98331.09;5142012;27;20075;-63
2021/12/07 05:57:19;;;;;;;130.75;53.50;;;;;;;10.18;93.77;98325.34;5143945;27;20035;-66
2021/12/07 05:59:44;;;;;;;112.85;47.83;;;;;;;10.09;94.24;98328.31;5137789;27;20266;-64
2021/12/07 06:02:10;;;;;;;105.72;45.10;;;;;;;10.27;93.07;98346.38;5135597;27;20035;-66
2021/12/07 06:04:36;;;;;;;110.05;45.72;;;;;;;10.05;95.42;98357.00;5142649;27;20081;-63
2021/12/07 06:07:01;;;;;;;109.93;46.90;;;;;;;10.18;96.06;98351.78;5143569;27;20047;-63
2021/12/07 06:09:27;;;;;;;105.70;47.35;;;;;;;10.45;93.55;98352.03;5137733;27;20078;-63
2021/12/07 06:11:54;;;;;;;98.57;43.65;;;;;;;10.40;93.45;98352.59;5137409;27;20050;-66
2021/12/07 06:14:21;;;;;;;106.32;47.17;;;;;;;10.24;94.59;98351.06;5136212;27;20027;-66
2021/12/07 06:16:48;;;;;;;102.43;43.95;;;;;;;10.26;95.02;98342.91;5143534;27;20064;-66
2021/12/07 06:19:13;;;;;;;103.28;45.53;;;;;;;10.44;93.95;98343.25;5142867;27;20039;-67
2021/12/07 06:21:39;;;;;;;100.13;43.65;;;;;;;10.47;94.34;98342.06;5137251;27;20035;-67
2021/12/07 06:24:05;;;;;;;150.75;54.10;;;;;;;10.44;94.95;98332.69;5136593;27;20084;-66
2021/12/07 06:26:33;;;;;;;128.60;50.95;;;;;;;10.48;95.10;98328.63;5137733;27;20043;-66
2021/12/07 06:28:59;;;;;;;111.05;47.45;;;;;;;10.53;95.22;98328.84;5136091;27;20050;-66
2021/12/07 06:31:24;;;;;;;105.68;48.97;;;;;;;10.65;94.90;98321.16;5140500;27;20110;-66
2021/12/07 06:33:50;;;;;;;103.88;47.25;;;;;;;10.65;94.54;98313.22;5143472;27;20030;-64
2021/12/07 06:36:15;;;;;;;124.95;54.75;;;;;;;10.69;94.48;98330.34;5139546;27;20107;-64
2021/12/07 06:38:42;;;;;;;123.57;56.50;;;;;;;10.76;94.64;98320.59;5117615;27;20019;-66
2021/12/07 06:41:07;;;;;;;132.57;59.75;;;;;;;10.98;93.15;98323.94;5141287;27;20098;-66
2021/12/07 06:43:33;;;;;;;129.23;52.00;;;;;;;10.85;92.99;98318.59;5142988;27;20015;-66
2021/12/07 06:45:59;;;;;;;110.65;48.35;;;;;;;10.78;94.95;98317.75;5136753;27;20259;-64
2021/12/07 06:48:25;;;;;;;102.07;46.92;;;;;;;10.88;95.26;98316.38;5134097;27;20038;-64
2021/12/07 06:50:51;;;;;;;109.90;45.42;;;;;;;11.04;94.82;98317.84;5136074;27;20050;-66
2021/12/07 06:53:17;;;;;;;105.18;44.92;;;;;;;11.14;95.20;98322.75;5136211;27;20034;-64
2021/12/07 06:55:42;;;;;;;106.90;48.63;;;;;;;11.11;95.30;98310.72;5137246;27;20301;-66
2021/12/07 06:58:08;;;;;;;102.65;44.88;;;;;;;11.32;94.68;98311.59;5135694;27;20042;-64
2021/12/07 07:00:34;;;;;;;100.93;49.67;;;;;;;11.34;94.54;98297.13;5118559;27;20031;-64
2021/12/07 07:02:59;;;;;;;101.10;45.08;;;;;;;11.29;93.81;98296.09;5135880;27;20042;-66
2021/12/07 07:05:25;;;;;;;138.93;61.67;;;;;;;10.82;96.86;98280.09;5136558;27;20027;-63
2021/12/07 07:07:50;;;;;;;145.00;69.05;;;;;;;10.91;97.98;98290.50;5136805;27;20066;-66
2021/12/07 07:10:18;;;;;;;105.63;48.95;;;;;;;11.00;98.20;98295.44;5134588;27;20422;-67
2021/12/07 07:12:44;;;;;;;108.03;48.85;;;;;;;10.69;99.65;98293.28;5136356;27;20233;-64
2021/12/07 07:15:10;;;;;;;117.35;51.47;;;;;;;10.60;100.00;98297.13;5139573;27;20092;-64
2021/12/07 07:17:36;;;;;;;118.50;51.28;;;;;;;10.53;100.00;98299.75;5137474;27;20027;-66
2021/12/07 07:20:03;;;;;;;110.30;50.10;;;;;;;10.56;100.00;98303.81;5138130;27;20038;-64
2021/12/07 07:22:29;;;;;;;164.68;84.95;;;;;;;10.75;100.00;98299.63;5137650;27;20035;-64
2021/12/07 07:24:54;;;;;;;114.18;52.83;;;;;;;10.63;100.00;98295.91;5137702;27;20080;-63
2021/12/07 07:27:20;;;;;;;114.35;48.35;;;;;;;10.61;100.00;98288.16;5136136;27;20054;-63
2021/12/07 07:29:46;;;;;;;111.88;50.40;;;;;;;10.61;100.00;98293.47;5138519;27;20031;-64
2021/12/07 07:32:12;;;;;;;123.03;51.45;;;;;;;10.83;100.00;98296.81;5137220;27;20046;-64
2021/12/07 07:34:37;;;;;;;104.30;49.72;;;;;;;10.82;99.27;98298.63;5136603;27;20023;-66
2021/12/07 07:37:04;;;;;;;108.18;44.13;;;;;;;10.82;99.70;98298.63;5139295;27;20031;-66
2021/12/07 07:39:30;;;;;;;100.22;44.78;;;;;;;10.67;100.00;98294.50;5136598;27;20027;-64
2021/12/07 07:41:55;;;;;;;90.18;40.97;;;;;;;10.74;100.00;98290.88;5136268;27;20030;-64
2021/12/07 07:44:21;;;;;;;91.10;41.30;;;;;;;10.77;99.92;98297.59;5138518;27;20287;-64
2021/12/07 07:46:47;;;;;;;90.30;38.58;;;;;;;10.55;100.00;98296.91;5136584;27;20035;-66
2021/12/07 07:49:12;;;;;;;96.88;39.65;;;;;;;10.61;100.00;98309.34;5136487;27;20035;-63
2021/12/07 07:51:38;;;;;;;98.25;44.00;;;;;;;10.73;100.00;98328.13;5117736;27;20043;-63
2021/12/07 07:54:05;;;;;;;99.60;40.88;;;;;;;10.92;99.70;98330.03;5138094;27;20030;-63
2021/12/07 07:56:32;;;;;;;84.05;39.30;;;;;;;11.13;98.57;98324.59;5137565;27;20092;-67
2021/12/07 07:58:58;;;;;;;82.22;35.60;;;;;;;10.92;99.68;98329.22;5137271;27;20026;-64
2021/12/07 08:01:24;;;;;;;90.25;36.10;;;;;;;10.80;100.00;98334.28;5136930;27;20050;-67
2021/12/07 08:03:51;;;;;;;88.80;35.53;;;;;;;10.77;100.00;98332.00;5137047;27;20022;-63
2021/12/07 08:06:17;;;;;;;94.68;38.53;;;;;;;10.81;100.00;98322.66;5118148;27;20031;-64
2021/12/07 08:08:42;;;;;;;92.78;38.03;;;;;;;10.82;100.00;98340.19;5137198;27;20023;-66
2021/12/07 08:11:07;;;;;;;96.88;37.30;;;;;;;10.63;100.00;98330.31;5136760;27;20031;-66
2021/12/07 08:13:33;;;;;;;89.45;37.80;;;;;;;10.81;100.00;98318.19;5135648;27;20130;-64
2021/12/07 08:15:59;;;;;;;88.63;39.85;;;;;;;10.84;100.00;98325.72;5136566;27;20034;-64
2021/12/07 08:18:24;;;;;;;82.57;37.28;;;;;;;10.99;100.00;98330.88;5136852;27;20039;-67
2021/12/07 08:20:50;;;;;;;89.85;36.70;;;;;;;11.13;100.00;98332.53;5136547;27;20050;-63
2021/12/07 08:23:16;;;;;;;76.68;33.67;;;;;;;11.35;98.69;98327.09;5139245;27;20046;-63
2021/12/07 08:25:45;;;;;;;81.43;34.38;;;;;;;11.23;98.78;98334.00;5141179;27;20103;-66
2021/12/07 08:28:13;;;;;;;88.75;37.85;;;;;;;11.11;100.00;98336.41;5140802;27;20050;-63
2021/12/07 08:30:40;;;;;;;78.13;36.13;;;;;;;11.30;99.54;98334.81;5139780;27;21107;-63
2021/12/07 08:33:06;;;;;;;74.05;32.53;;;;;;;11.39;99.93;98339.72;5142299;27;20046;-66
2021/12/07 08:35:32;;;;;;;74.80;32.78;;;;;;;11.35;99.29;98340.34;5139659;27;20332;-63
2021/12/07 08:37:58;;;;;;;46.78;21.55;;;;;;;11.27;99.84;98338.69;5146363;27;20027;-64
2021/12/07 08:40:26;;;;;;;41.20;18.17;;;;;;;11.30;98.08;98342.78;5146267;27;20061;-63
2021/12/07 08:42:52;;;;;;;31.05;13.68;;;;;;;11.23;97.85;98344.59;5145771;27;20052;-66
2021/12/07 08:45:20;;;;;;;38.03;15.30;;;;;;;11.19;98.54;98339.69;5145886;27;20047;-63
2021/12/07 08:47:46;;;;;;;25.48;11.63;;;;;;;11.04;98.51;98339.03;5145754;27;20033;-64
2021/12/07 08:50:22;;;;;;;26.70;11.45;;;;;;;11.14;98.39;98330.72;5145819;27;20058;-66
2021/12/07 08:52:49;;;;;;;24.50;11.82;;;;;;;11.19;98.21;98321.16;5145732;27;20047;-66
2021/12/07 09:00:31;;;;;;;17.85;9.50;;;;;;;11.52;95.48;98304.50;5145661;27;20037;-66
2021/12/07 09:02:56;;;;;;;14.23;9.25;;;;;;;11.49;96.08;98291.66;5145869;27;20358;-66
2021/12/07 09:05:23;;;;;;;20.23;15.27;;;;;;;11.27;98.04;98303.44;5145441;27;20345;-64
2021/12/07 09:07:49;;;;;;;20.98;13.20;;;;;;;11.31;97.56;98292.22;5145640;27;20038;-63
2021/12/07 09:10:15;;;;;;;15.88;7.85;;;;;;;11.47;96.66;98286.56;5145392;27;20027;-63
2021/12/07 09:12:41;;;;;;;15.55;7.13;;;;;;;11.40;95.86;98291.00;5145477;27;20132;-66
2021/12/07 09:15:07;;;;;;;20.05;10.05;;;;;;;11.51;95.30;98281.66;5145384;27;20102;-63
2021/12/07 09:17:33;;;;;;;16.95;8.00;;;;;;;11.55;96.29;98288.19;5145229;27;20015;-64
2021/12/07 09:19:58;;;;;;;12.70;7.18;;;;;;;11.87;95.85;98280.47;5145741;27;20034;-66
2021/12/07 09:22:26;;;;;;;14.25;7.78;;;;;;;11.79;94.79;98292.91;5144843;27;20038;-64
2021/12/07 09:24:52;;;;;;;11.13;6.40;;;;;;;11.58;94.08;98282.47;5145270;27;20101;-66
2021/12/07 09:27:17;;;;;;;12.05;5.68;;;;;;;11.59;95.47;98289.41;5145065;27;20333;-63
2021/12/07 09:29:44;;;;;;;17.38;8.40;;;;;;;11.48;96.05;98295.34;5144894;27;20046;-66
2021/12/07 09:32:09;;;;;;;13.43;9.88;;;;;;;11.45;96.26;98287.78;5145020;27;20027;-66
2021/12/07 09:34:35;;;;;;;12.60;7.50;;;;;;;11.42;94.88;98273.06;5144374;27;20035;-64
2021/12/07 09:37:00;;;;;;;12.90;7.95;;;;;;;11.26;96.62;98283.25;5143159;27;20031;-66
2021/12/07 09:39:26;;;;;;;12.55;6.47;;;;;;;11.01;96.61;98290.94;5144907;27;20027;-66
2021/12/07 09:41:51;;;;;;;17.67;8.13;;;;;;;10.98;97.26;98297.47;5144823;27;20072;-66
2021/12/07 09:44:17;;;;;;;22.25;10.10;;;;;;;11.01;96.91;98286.47;5144494;27;20030;-66
2021/12/07 09:46:43;;;;;;;15.48;8.02;;;;;;;11.02;94.95;98287.28;5143446;27;20050;-66
2021/12/07 09:49:11;;;;;;;13.57;7.70;;;;;;;10.86;96.61;98291.09;5144888;27;20023;-64
2021/12/07 09:51:37;;;;;;;18.55;9.80;;;;;;;11.04;96.42;98283.41;5125807;27;20225;-63
2021/12/07 09:54:04;;;;;;;16.52;7.13;;;;;;;10.85;96.06;98281.53;5144805;27;20042;-66
2021/12/07 09:56:30;;;;;;;15.13;7.90;;;;;;;10.81;96.88;98277.66;5145089;27;20328;-66
2021/12/07 09:58:57;;;;;;;16.15;8.35;;;;;;;10.96;95.66;98262.41;5144704;27;20034;-66
2021/12/07 10:01:26;;;;;;;14.90;6.82;;;;;;;10.92;95.54;98249.78;5144791;27;20148;-63
2021/12/07 10:03:52;;;;;;;13.55;6.93;;;;;;;10.88;96.41;98238.75;5144549;27;20035;-63
2021/12/07 10:06:19;;;;;;;17.35;7.18;;;;;;;10.98;95.57;98247.13;5144093;27;20059;-64
2021/12/07 10:08:44;;;;;;;13.70;6.20;;;;;;;10.92;95.01;98245.28;5144462;27;20023;-63
2021/12/07 10:11:10;;;;;;;10.20;5.47;;;;;;;10.84;95.26;98238.34;5125151;27;20046;-66
2021/12/07 10:13:40;;;;;;;16.77;6.15;;;;;;;10.79;95.52;98229.38;5144508;27;20055;-64
2021/12/07 10:16:07;;;;;;;15.55;6.10;;;;;;;10.53;96.45;98238.06;5144268;27;20039;-63
2021/12/07 10:18:36;;;;;;;13.25;6.78;;;;;;;10.60;96.48;98230.13;5143938;27;20035;-66
2021/12/07 10:21:13;;;;;;;17.55;6.38;;;;;;;10.70;96.47;98230.56;5144285;27;20027;-66
2021/12/07 10:23:41;;;;;;;22.73;9.05;;;;;;;10.68;96.06;98233.41;5144216;27;20751;-64
2021/12/07 10:26:14;;;;;;;20.38;7.88;;;;;;;10.60;96.22;98240.72;5124745;27;20256;-66
2021/12/07 10:28:42;;;;;;;20.20;9.00;;;;;;;10.84;95.35;98233.06;5163647;27;20040;-63
2021/12/07 10:31:42;;;;;;;19.83;8.57;;;;;;;10.92;95.46;98242.66;5146255;27;20062;-63
2021/12/07 10:34:14;;;;;;;16.60;6.75;;;;;;;10.66;95.18;98224.88;5164471;27;20034;-66
2021/12/07 10:36:43;;;;;;;14.73;7.38;;;;;;;10.75;96.09;98239.56;5164798;27;20031;-66
2021/12/07 10:39:08;;;;;;;14.55;7.45;;;;;;;10.64;95.90;98236.66;5164547;27;20094;-64
2021/12/07 10:41:46;;;;;;;21.27;8.75;;;;;;;10.62;96.16;98230.75;5164224;27;20201;-65
2021/12/07 10:44:15;;;;;;;21.90;9.85;;;;;;;10.49;97.10;98229.69;5164712;27;20217;-66
2021/12/07 10:46:48;;;;;;;25.73;9.48;;;;;;;10.60;97.07;98220.38;5164352;27;20035;-64
2021/12/07 10:49:32;;;;;;;16.65;8.38;;;;;;;10.64;95.34;98226.91;5164239;27;20035;-64
2021/12/07 10:52:12;;;;;;;15.20;7.25;;;;;;;10.70;95.48;98212.03;5163830;27;20062;-66
2021/12/07 10:54:48;;;;;;;13.10;6.85;;;;;;;10.67;93.81;98215.91;5145806;27;20035;-65
2021/12/07 10:57:18;;;;;;;18.35;7.03;;;;;;;10.50;95.27;98204.88;5163874;27;20031;-66
2021/12/07 11:00:10;;;;;;;14.30;6.97;;;;;;;10.53;96.21;98203.66;5164210;27;20136;-66
2021/12/07 11:02:39;;;;;;;12.70;6.15;;;;;;;10.18;96.17;98163.19;5164077;27;20038;-63
2021/12/07 11:05:13;;;;;;;10.40;6.00;;;;;;;10.45;97.31;98207.28;5162927;27;20220;-66
2021/12/07 11:07:39;;;;;;;8.93;5.22;;;;;;;10.48;96.76;98206.06;5164194;27;20265;-63
2021/12/07 11:10:14;;;;;;;13.80;5.95;;;;;;;10.51;95.21;98195.09;5164179;27;20274;-63
2021/12/07 11:15:36;;;;;;;11.55;6.28;;;;;;;10.29;95.40;98196.22;5144681;27;20042;-63
2021/12/07 11:18:06;;;;;;;14.68;6.20;;;;;;;10.38;95.60;98195.03;5163405;27;20284;-66
2021/12/07 11:20:33;;;;;;;15.38;7.88;;;;;;;10.36;95.45;98195.22;5163809;27;20284;-63
2021/12/07 11:23:15;;;;;;;10.70;6.07;;;;;;;10.50;94.32;98188.16;5163585;27;20026;-66
2021/12/07 11:31:18;;;;;;;8.32;4.07;;;;;;;10.23;92.00;98196.00;5163773;27;20036;-66
2021/12/07 11:33:45;;;;;;;12.90;5.53;;;;;;;10.37;92.22;98191.56;5163925;27;20069;-66
2021/12/07 11:36:25;;;;;;;10.00;5.45;;;;;;;10.44;91.40;98192.44;5163406;27;20114;-63
2021/12/07 11:38:51;;;;;;;8.20;5.20;;;;;;;10.44;91.16;98188.97;5163484;27;20376;-63
2021/12/07 11:41:25;;;;;;;10.70;4.72;;;;;;;10.24;91.01;98183.56;5163269;27;20339;-63
2021/12/07 11:43:58;;;;;;;7.93;4.50;;;;;;;10.12;91.98;98185.13;5163204;27;20030;-65
2021/12/07 11:46:27;;;;;;;7.55;4.53;;;;;;;10.06;92.49;98176.16;5162954;27;20279;-66
2021/12/07 11:49:13;;;;;;;9.05;4.80;;;;;;;9.95;92.72;98181.19;5163385;27;20030;-66
2021/12/07 11:51:41;;;;;;;6.97;3.95;;;;;;;9.78;92.39;98180.69;5162704;27;20035;-65
2021/12/07 11:54:07;;;;;;;5.97;4.25;;;;;;;9.93;92.10;98184.84;5163402;27;20082;-63
2021/12/07 11:56:34;;;;;;;10.15;4.10;;;;;;;9.71;92.21;98182.47;5163024;27;20083;-65
2021/12/07 11:59:00;;;;;;;6.53;3.50;;;;;;;9.63;91.85;98179.97;5163108;27;20042;-63
2021/12/07 12:01:25;;;;;;;9.07;3.58;;;;;;;9.41;91.27;98177.41;5162879;27;20030;-66
2021/12/07 12:03:51;;;;;;;8.82;4.03;;;;;;;9.34;91.43;98180.97;5144491;27;20019;-65
2021/12/07 12:06:16;;;;;;;4.88;3.15;;;;;;;9.32;90.80;98180.34;5162961;27;20113;-65
2021/12/07 12:08:42;;;;;;;6.38;2.90;;;;;;;9.08;90.21;98171.03;5162355;27;20039;-63
2021/12/07 12:11:31;;;;;;;5.60;3.33;;;;;;;9.19;89.44;98178.44;5162249;27;20078;-63
2021/12/07 12:14:18;;;;;;;6.65;3.05;;;;;;;9.23;89.11;98179.69;5146322;27;20027;-66
2021/12/07 12:17:05;;;;;;;8.48;3.20;;;;;;;9.13;89.71;98180.00;5135678;27;20043;-65
2021/12/07 12:20:02;;;;;;;6.38;3.42;;;;;;;9.00;90.62;98166.69;5134184;27;20323;-63
2021/12/07 12:22:38;;;;;;;13.65;2.40;;;;;;;9.05;89.45;98176.69;5135559;27;20030;-65
2021/12/07 12:25:13;;;;;;;3.72;2.42;;;;;;;8.87;89.68;98170.03;5134428;27;20038;-65
2021/12/07 12:27:41;;;;;;;4.97;2.38;;;;;;;8.83;90.30;98171.44;5135265;27;20087;-63
2021/12/07 12:30:18;;;;;;;6.53;3.25;;;;;;;8.95;90.77;98167.28;5133996;27;20313;-66
2021/12/07 12:32:47;;;;;;;6.70;3.45;;;;;;;8.90;89.54;98176.75;5134141;27;20043;-63
2021/12/07 12:35:14;;;;;;;5.88;3.05;;;;;;;8.87;88.65;98171.88;5135109;27;20063;-62
2021/12/07 12:37:48;;;;;;;10.45;3.78;;;;;;;8.65;88.45;98178.97;5134092;27;20713;-65
2021/12/07 12:40:32;;;;;;;8.35;3.90;;;;;;;8.53;89.04;98183.91;5132971;27;20425;-63
2021/12/07 12:43:01;;;;;;;9.45;3.58;;;;;;;8.59;89.03;98185.81;5133416;27;20040;-64
2021/12/07 12:45:31;;;;;;;6.40;4.00;;;;;;;8.66;89.67;98177.97;5134261;27;20039;-63
2021/12/07 12:48:06;;;;;;;10.48;4.95;;;;;;;8.64;88.48;98182.59;5134917;27;20128;-66
2021/12/07 12:50:45;;;;;;;9.15;4.60;;;;;;;8.58;88.93;98188.63;5134358;27;20031;-63
2021/12/07 12:53:12;;;;;;;9.63;3.63;;;;;;;8.32;89.86;98189.09;5133963;27;20023;-66
2021/12/07 12:55:55;;;;;;;6.07;3.17;;;;;;;8.43;90.19;98187.88;5135572;27;20042;-65
2021/12/07 12:58:36;;;;;;;8.63;3.55;;;;;;;8.29;90.45;98186.84;5135811;27;20031;-63
2021/12/07 13:01:05;;;;;;;7.00;3.63;;;;;;;8.35;90.68;98180.88;5136801;27;20400;-66
2021/12/07 13:03:42;;;;;;;7.78;3.45;;;;;;;8.16;90.22;98168.22;5133342;27;20115;-63
2021/12/07 13:06:08;;;;;;;8.25;3.17;;;;;;;7.95;91.09;98180.34;5134097;27;20038;-63
2021/12/07 13:08:53;;;;;;;7.57;2.97;;;;;;;8.02;91.11;98190.97;5135020;27;20063;-63
2021/12/07 13:11:35;;;;;;;7.07;3.13;;;;;;;8.04;91.43;98196.88;5137776;27;20237;-65
2021/12/07 13:14:02;;;;;;;5.20;3.03;;;;;;;8.00;90.72;98191.16;5136110;27;20286;-66